Time;durP1;ratioP1;P1;durP2;ratioP2;P2;SDS_P1;SDS_P2;PMS_P1;PMS_P2;Temp;Humidity;BMP_temperature;BMP_pressure;BME280_temperature;BME280_humidity;BME280_pressure;Samples;Min_cycle;Max_cycle;Signal;HPM_P1;HPM_P2
2022/08/27 00:00:37;;;;;;;5.50;1.65;;;20.00;84.20;;;;;;6251363;22;20505;-87
2022/08/27 00:03:10;;;;;;;3.13;1.75;;;20.10;84.00;;;;;;6276840;22;20326;-87
2022/08/27 00:05:39;;;;;;;2.67;1.63;;;20.20;83.90;;;;;;6277079;22;20004;-88
2022/08/27 00:08:11;;;;;;;2.55;1.42;;;20.20;84.00;;;;;;6277870;22;20034;-88
2022/08/27 00:10:40;;;;;;;3.50;1.63;;;20.10;84.10;;;;;;6252361;23;20023;-88
2022/08/27 00:13:08;;;;;;;4.30;1.65;;;20.10;84.10;;;;;;6277594;22;20361;-90
2022/08/27 00:15:36;;;;;;;5.13;1.80;;;20.00;84.10;;;;;;6277955;22;20053;-87
2022/08/27 00:18:05;;;;;;;4.32;1.88;;;20.10;84.10;;;;;;6276990;22;20338;-89
2022/08/27 00:20:31;;;;;;;2.58;1.58;;;20.10;83.90;;;;;;6227582;23;20004;-87
2022/08/27 00:23:06;;;;;;;3.70;1.50;;;20.10;83.90;;;;;;6277994;22;20016;-87
2022/08/27 00:25:41;;;;;;;5.00;1.60;;;20.10;83.90;;;;;;6278544;22;19984;-89
2022/08/27 00:28:08;;;;;;;4.75;1.60;;;20.20;83.80;;;;;;6253029;23;19995;-89
2022/08/27 00:30:34;;;;;;;4.07;1.60;;;20.10;83.80;;;;;;6252115;23;20024;-88
2022/08/27 00:33:04;;;;;;;3.90;1.52;;;20.10;83.90;;;;;;6277337;22;20449;-89
2022/08/27 00:35:34;;;;;;;5.60;1.42;;;20.10;83.80;;;;;;6250752;23;19996;-87
2022/08/27 00:38:04;;;;;;;3.47;1.77;;;20.10;83.90;;;;;;6276732;22;20135;-88
2022/08/27 00:40:35;;;;;;;2.42;1.20;;;20.00;83.80;;;;;;6276112;22;20008;-87
2022/08/27 00:43:06;;;;;;;4.95;1.70;;;19.90;83.90;;;;;;6253071;23;20388;-87
2022/08/27 00:45:43;;;;;;;4.00;1.75;;;19.90;83.80;;;;;;6279408;22;20066;-87
2022/08/27 00:48:14;;;;;;;2.17;1.38;;;19.90;83.80;;;;;;6279873;22;20008;-88
2022/08/27 00:50:54;;;;;;;;;;;20.00;83.70;;;;;;6256121;22;20373;-87
2022/08/27 00:53:35;;;;;;;;;;;;;;;;;;;;;
2022/08/27 00:56:30;;;;;;;2.95;1.52;;;20.10;83.60;;;;;;6235887;22;20039;-89
2022/08/27 00:59:15;;;;;;;;;;;;;;;;;;;;;
2022/08/27 01:04:41;;;;;;;4.43;1.50;;;20.30;83.10;;;;;;6255751;23;20058;-87
2022/08/27 01:07:08;;;;;;;3.92;1.30;;;20.20;82.90;;;;;;6253783;23;20406;-88
2022/08/27 01:09:36;;;;;;;5.32;1.70;;;20.20;82.90;;;;;;6279566;22;20007;-88
2022/08/27 01:12:04;;;;;;;3.63;1.83;;;20.20;83.00;;;;;;6279063;22;20027;-87
2022/08/27 01:14:32;;;;;;;4.38;1.48;;;20.20;83.10;;;;;;6279708;22;20007;-87
2022/08/27 01:17:10;;;;;;;4.63;1.65;;;20.10;83.10;;;;;;6255499;22;20004;-86
2022/08/27 01:19:49;;;;;;;2.08;1.45;;;20.10;83.20;;;;;;6256542;23;20028;-89
2022/08/27 01:22:31;;;;;;;3.17;1.55;;;20.10;83.20;;;;;;6257872;22;20038;-87
2022/08/27 01:25:13;;;;;;;3.00;1.60;;;20.20;83.20;;;;;;6254573;23;20077;-88
2022/08/27 01:27:42;;;;;;;3.75;1.80;;;20.20;83.20;;;;;;6280521;22;20011;-88
2022/08/27 01:30:19;;;;;;;2.50;1.40;;;20.20;83.30;;;;;;6280063;22;20000;-86
2022/08/27 01:32:57;;;;;;;2.33;1.67;;;20.20;83.20;;;;;;6278664;22;20004;-89
2022/08/27 01:35:25;;;;;;;4.10;1.75;;;20.20;83.20;;;;;;6278538;22;20497;-89
2022/08/27 01:37:58;;;;;;;3.90;1.60;;;20.20;83.10;;;;;;6252783;22;20015;-88
2022/08/27 01:40:24;;;;;;;1.88;1.42;;;20.20;83.70;;;;;;6280409;22;19996;-87
2022/08/27 01:42:55;;;;;;;2.47;1.67;;;20.10;82.90;;;;;;6281489;22;20028;-87
2022/08/27 01:45:30;;;;;;;4.25;1.88;;;20.10;83.20;;;;;;6287923;22;19999;-90
2022/08/27 01:48:09;;;;;;;3.88;1.70;;;20.00;83.30;;;;;;6274736;22;20015;-87
2022/08/27 01:50:47;;;;;;;2.75;1.75;;;20.00;83.40;;;;;;6277119;22;20034;-91
2022/08/27 01:53:19;;;;;;;4.53;1.85;;;20.00;83.50;;;;;;6300019;22;19999;-88
2022/08/27 01:55:52;;;;;;;3.60;1.63;;;20.00;83.40;;;;;;6298469;22;20009;-90
2022/08/27 01:58:29;;;;;;;2.70;1.50;;;20.10;83.40;;;;;;6260790;22;20154;-88
2022/08/27 02:01:07;;;;;;;3.28;1.77;;;20.10;83.20;;;;;;6267818;22;20004;-87
2022/08/27 02:03:41;;;;;;;3.38;1.70;;;20.00;83.20;;;;;;6254394;23;19996;-87
2022/08/27 02:06:33;;;;;;;4.32;1.98;;;20.00;83.30;;;;;;6225148;23;20008;-87
2022/08/27 02:09:05;;;;;;;3.85;1.65;;;20.00;83.50;;;;;;6251783;23;20000;-88
2022/08/27 02:11:31;;;;;;;3.03;1.58;;;20.00;83.60;;;;;;6226706;23;20036;-86
2022/08/27 02:14:02;;;;;;;6.20;1.98;;;19.90;83.50;;;;;;6252818;22;20007;-87
2022/08/27 02:16:28;;;;;;;3.30;1.83;;;19.90;83.70;;;;;;6253030;23;20004;-88
2022/08/27 02:18:59;;;;;;;4.80;1.95;;;19.90;83.70;;;;;;6278755;22;20320;-87
2022/08/27 02:21:29;;;;;;;;;;;19.90;83.60;;;;;;6227282;23;20087;-88
2022/08/27 02:24:09;;;;;;;3.17;1.88;;;19.90;83.60;;;;;;6228682;23;19915;-88
2022/08/27 02:26:37;;;;;;;3.97;1.73;;;19.90;83.70;;;;;;6230936;23;20058;-89
2022/08/27 02:29:07;;;;;;;3.63;1.73;;;20.00;83.60;;;;;;6279504;22;20008;-87
2022/08/27 02:31:35;;;;;;;5.20;1.90;;;19.90;83.40;;;;;;6253999;22;20095;-88
2022/08/27 02:34:10;;;;;;;3.65;1.80;;;19.90;83.40;;;;;;6278271;22;20012;-87
2022/08/27 02:36:45;;;;;;;4.15;1.95;;;19.80;83.30;;;;;;6277752;22;20016;-87
2022/08/27 02:39:14;;;;;;;3.80;1.77;;;19.80;83.50;;;;;;6253052;22;20103;-89
2022/08/27 02:41:43;;;;;;;4.22;1.58;;;19.70;83.40;;;;;;6226961;23;20036;-87
2022/08/27 02:44:10;;;;;;;2.90;1.75;;;19.70;83.40;;;;;;6253038;23;20379;-88
2022/08/27 02:46:57;;;;;;;2.83;1.58;;;19.70;83.20;;;;;;6277138;22;20068;-87
2022/08/27 02:49:35;;;;;;;;;;;;;;;;;;;;;
2022/08/27 02:52:06;;;;;;;5.40;2.20;;;19.80;83.10;;;;;;6230572;23;20042;-87
2022/08/27 02:54:42;;;;;;;3.38;1.70;;;19.80;82.90;;;;;;6251123;23;20068;-88
2022/08/27 02:57:13;;;;;;;2.95;1.70;;;19.70;83.00;;;;;;6228057;23;20040;-88
2022/08/27 02:59:46;;;;;;;3.80;1.65;;;19.70;83.10;;;;;;6226822;23;20031;-88
2022/08/27 03:02:17;;;;;;;3.38;1.83;;;19.70;83.20;;;;;;6254522;23;20000;-86
2022/08/27 03:04:45;;;;;;;3.72;1.85;;;19.70;83.10;;;;;;6253012;23;20066;-89
2022/08/27 03:07:16;;;;;;;3.83;1.80;;;19.70;83.10;;;;;;6252819;23;20019;-90
2022/08/27 03:09:42;;;;;;;3.13;1.52;;;19.70;83.00;;;;;;6251413;23;20019;-87
2022/08/27 03:15:27;;;;;;;4.45;1.88;;;19.80;82.80;;;;;;6254909;23;20015;-87
2022/08/27 03:20:55;;;;;;;4.32;1.85;;;19.70;82.80;;;;;;6255478;23;20022;-87
2022/08/27 03:23:26;;;;;;;3.22;1.55;;;19.70;82.70;;;;;;6229095;23;20027;-88
2022/08/27 03:25:54;;;;;;;2.75;1.60;;;19.70;83.00;;;;;;6252264;23;20004;-87
2022/08/27 03:28:34;;;;;;;4.47;2.15;;;19.60;82.50;;;;;;6252895;23;20008;-88
2022/08/27 03:31:19;;;;;;;6.90;2.13;;;19.60;82.70;;;;;;6253636;22;20004;-89
2022/08/27 03:33:58;;;;;;;4.65;2.10;;;19.60;82.70;;;;;;6280473;22;20696;-88
2022/08/27 03:36:36;;;;;;;4.40;1.92;;;19.60;82.70;;;;;;6281608;22;20007;-87
2022/08/27 03:39:02;;;;;;;3.78;1.70;;;19.60;82.60;;;;;;6256406;23;20008;-89
2022/08/27 03:41:31;;;;;;;3.85;2.17;;;19.60;82.60;;;;;;6229708;23;20007;-90
2022/08/27 03:44:11;;;;;;;6.10;1.98;;;19.60;82.40;;;;;;6255960;22;20449;-87
2022/08/27 03:47:12;;;;;;;4.28;2.00;;;19.50;82.50;;;;;;6266113;23;20016;-89
2022/08/27 03:50:26;;;;;;;;;;;;;;;;;;;;;
2022/08/27 03:53:01;;;;;;;2.50;1.73;;;19.60;82.80;;;;;;6272217;22;19992;-88
2022/08/27 03:55:39;;;;;;;3.70;2.20;;;19.60;82.60;;;;;;6296470;22;19992;-88
2022/08/27 03:58:19;;;;;;;6.15;2.40;;;19.60;82.30;;;;;;6287244;22;20299;-89
2022/08/27 04:00:47;;;;;;;4.28;2.00;;;19.60;82.50;;;;;;6252974;22;20011;-88
2022/08/27 04:03:16;;;;;;;8.25;2.72;;;19.60;82.50;;;;;;6279249;22;19996;-89
2022/08/27 04:05:56;;;;;;;4.80;1.95;;;19.60;82.40;;;;;;6225976;23;20000;-88
2022/08/27 04:08:35;;;;;;;4.63;2.00;;;19.60;82.50;;;;;;6252804;22;20008;-88
2022/08/27 04:11:13;;;;;;;4.45;2.30;;;19.60;82.50;;;;;;6278688;22;20008;-88
2022/08/27 04:13:43;;;;;;;3.05;2.05;;;19.50;82.60;;;;;;6253770;22;20423;-88
2022/08/27 04:16:18;;;;;;;4.77;1.93;;;19.60;82.60;;;;;;6278388;22;20023;-88
2022/08/27 04:18:52;;;;;;;4.68;2.17;;;19.60;82.60;;;;;;6256370;22;20018;-88
2022/08/27 04:21:18;;;;;;;3.05;1.95;;;19.70;82.60;;;;;;6254715;23;20027;-86
2022/08/27 04:23:43;;;;;;;4.28;2.05;;;19.80;82.50;;;;;;6279683;22;20012;-88
2022/08/27 04:26:18;;;;;;;4.00;2.30;;;19.80;82.30;;;;;;6279696;22;20003;-89
2022/08/27 04:28:52;;;;;;;3.90;2.10;;;19.90;82.30;;;;;;6253115;22;20063;-87
2022/08/27 04:31:24;;;;;;;4.30;2.20;;;19.80;82.10;;;;;;6255617;23;20372;-87
2022/08/27 04:33:55;;;;;;;4.80;2.00;;;19.90;82.00;;;;;;6280374;22;20050;-87
2022/08/27 04:36:23;;;;;;;4.30;2.10;;;19.90;82.00;;;;;;6279000;22;20036;-87
2022/08/27 04:39:05;;;;;;;5.30;2.00;;;19.90;82.60;;;;;;6254353;22;20426;-89
2022/08/27 04:41:33;;;;;;;3.15;1.63;;;19.90;81.80;;;;;;6278693;22;20008;-88
2022/08/27 04:44:12;;;;;;;4.35;1.80;;;19.90;81.90;;;;;;6279174;22;20000;-86
2022/08/27 04:46:50;;;;;;;4.15;2.00;;;19.80;81.90;;;;;;6275761;22;20004;-88
2022/08/27 04:49:26;;;;;;;4.35;2.15;;;19.80;81.90;;;;;;6279268;22;20008;-88
2022/08/27 04:52:15;;;;;;;2.97;2.20;;;19.70;82.00;;;;;;6230544;23;20011;-88
2022/08/27 04:54:43;;;;;;;5.40;2.53;;;19.60;82.10;;;;;;6255675;22;20004;-88
2022/08/27 04:57:26;;;;;;;4.90;2.30;;;19.50;82.30;;;;;;6253166;22;20004;-88
2022/08/27 05:00:05;;;;;;;;;;;;;;;;;;;;;
2022/08/27 05:02:54;;;;;;;;;;;;;;;;;;;;;
2022/08/27 05:05:20;;;;;;;3.47;2.20;;;19.40;82.40;;;;;;6255626;23;20024;-87
2022/08/27 05:07:48;;;;;;;3.53;2.13;;;19.50;82.40;;;;;;6278586;22;20000;-87
2022/08/27 05:10:17;;;;;;;4.00;2.38;;;19.50;82.40;;;;;;6254395;22;20040;-86
2022/08/27 05:12:50;;;;;;;3.88;2.58;;;19.50;82.50;;;;;;6278869;22;20009;-87
2022/08/27 05:15:17;;;;;;;4.93;2.38;;;19.30;82.50;;;;;;6255359;22;20103;-87
2022/08/27 05:17:44;;;;;;;5.05;2.33;;;19.30;82.70;;;;;;6281614;22;20004;-88
2022/08/27 05:20:15;;;;;;;6.30;2.33;;;19.30;82.80;;;;;;6253583;22;20062;-88
2022/08/27 05:22:45;;;;;;;6.05;2.42;;;19.40;82.80;;;;;;6254403;22;20020;-88
2022/08/27 05:25:11;;;;;;;3.83;2.38;;;19.40;82.90;;;;;;6279536;22;20008;-87
2022/08/27 05:27:58;;;;;;;4.05;2.35;;;19.30;83.00;;;;;;6281280;22;20465;-87
2022/08/27 05:30:28;;;;;;;4.70;2.10;;;19.30;83.10;;;;;;6254817;23;20005;-88
2022/08/27 05:32:56;;;;;;;3.13;2.00;;;19.20;83.20;;;;;;6254940;23;20075;-88
2022/08/27 05:35:27;;;;;;;3.63;2.20;;;19.20;83.30;;;;;;6279700;22;20004;-88
2022/08/27 05:37:53;;;;;;;;;;;19.20;83.20;;;;;;6287356;22;20012;-87
2022/08/27 05:40:20;;;;;;;4.00;2.05;;;19.20;83.20;;;;;;6259646;23;19904;-89
2022/08/27 05:42:55;;;;;;;4.80;2.25;;;19.20;83.30;;;;;;6285476;22;20022;-90
2022/08/27 05:45:23;;;;;;;4.65;2.25;;;19.10;83.40;;;;;;6276059;22;20019;-86
2022/08/27 05:47:49;;;;;;;4.18;2.25;;;19.10;83.70;;;;;;6274948;22;19996;-88
2022/08/27 05:50:17;;;;;;;5.10;2.42;;;19.10;83.80;;;;;;6300091;22;19992;-90
2022/08/27 05:52:42;;;;;;;4.40;2.30;;;19.10;84.10;;;;;;6296681;22;20042;-89
2022/08/27 05:55:16;;;;;;;4.97;2.28;;;19.00;84.10;;;;;;6286153;22;20318;-87
2022/08/27 05:57:47;;;;;;;6.05;2.40;;;19.10;84.20;;;;;;6278067;22;20334;-87
2022/08/27 06:03:00;;;;;;;5.47;2.47;;;19.00;84.20;;;;;;6255012;23;20023;-87
2022/08/27 06:05:38;;;;;;;4.47;2.20;;;19.10;84.10;;;;;;6279325;22;20051;-87
2022/08/27 06:08:04;;;;;;;6.25;2.53;;;19.00;84.30;;;;;;6279039;22;20007;-88
2022/08/27 06:10:55;;;;;;;;;;;;;;;;;;;;;
2022/08/27 06:13:32;;;;;;;5.85;2.42;;;19.10;84.30;;;;;;6255290;23;20035;-88
2022/08/27 06:16:12;;;;;;;3.42;2.13;;;19.20;84.20;;;;;;6253255;22;20009;-89
2022/08/27 06:18:59;;;;;;;3.70;1.98;;;19.10;84.30;;;;;;6255471;22;20087;-87
2022/08/27 06:21:26;;;;;;;;;;;19.10;84.40;;;;;;6279792;22;20077;-88
2022/08/27 06:23:53;;;;;;;5.15;2.28;;;19.10;84.40;;;;;;6226811;23;19960;-88
2022/08/27 06:26:22;;;;;;;3.03;2.03;;;19.10;84.50;;;;;;6278201;22;20031;-87
2022/08/27 06:29:00;;;;;;;5.75;2.30;;;19.10;84.40;;;;;;6278405;22;20004;-90
2022/08/27 06:31:27;;;;;;;5.03;2.13;;;19.00;84.60;;;;;;6277955;22;20004;-87
2022/08/27 06:34:05;;;;;;;3.65;2.10;;;19.10;84.60;;;;;;6253781;22;20011;-88
2022/08/27 06:36:35;;;;;;;5.00;2.17;;;19.10;84.30;;;;;;6278909;22;20015;-87
2022/08/27 06:39:05;;;;;;;4.97;1.85;;;19.10;84.20;;;;;;6278833;22;20393;-88
2022/08/27 06:41:56;;;;;;;4.20;2.20;;;19.20;84.20;;;;;;6278752;22;20004;-87
2022/08/27 06:44:23;;;;;;;4.30;1.90;;;19.20;84.10;;;;;;6253922;22;20087;-87
2022/08/27 06:46:51;;;;;;;2.97;1.65;;;19.20;83.90;;;;;;6278019;22;20095;-86
2022/08/27 06:49:22;;;;;;;3.55;1.92;;;19.20;83.80;;;;;;6278881;22;20338;-88
2022/08/27 06:51:53;;;;;;;4.10;2.03;;;19.20;83.80;;;;;;6278789;22;20004;-88
2022/08/27 06:54:19;;;;;;;2.38;1.60;;;19.20;83.60;;;;;;6253223;22;19988;-89
2022/08/27 06:56:46;;;;;;;3.45;2.03;;;19.20;83.50;;;;;;6252534;23;20091;-86
2022/08/27 06:59:15;;;;;;;2.83;1.55;;;19.30;83.40;;;;;;6275850;22;20270;-82
2022/08/27 07:01:44;;;;;;;3.75;1.65;;;19.30;83.20;;;;;;6275638;22;20574;-83
2022/08/27 07:04:12;;;;;;;3.25;1.35;;;19.30;83.10;;;;;;6275200;22;20000;-84
2022/08/27 07:06:39;;;;;;;1.60;1.20;;;19.40;83.10;;;;;;6274835;22;20087;-85
2022/08/27 07:09:06;;;;;;;3.60;1.60;;;19.50;83.00;;;;;;6249458;22;20331;-83
2022/08/27 07:11:37;;;;;;;2.85;1.20;;;19.50;82.90;;;;;;6250486;23;20004;-82
2022/08/27 07:14:06;;;;;;;6.07;2.00;;;19.60;82.60;;;;;;6275796;22;20330;-83
2022/08/27 07:16:32;;;;;;;3.38;1.42;;;19.60;82.50;;;;;;6250508;23;20219;-83
2022/08/27 07:19:00;;;;;;;3.47;1.50;;;19.60;82.10;;;;;;6275735;22;20334;-83
2022/08/27 07:21:26;;;;;;;2.53;1.27;;;19.70;82.40;;;;;;6251547;23;20000;-84
2022/08/27 07:24:03;;;;;;;3.05;1.52;;;19.70;82.40;;;;;;6250072;23;20012;-83
2022/08/27 07:26:30;;;;;;;3.38;1.58;;;19.80;82.50;;;;;;6251976;22;20034;-83
2022/08/27 07:28:56;;;;;;;2.75;1.67;;;19.90;82.30;;;;;;6249590;22;20009;-84
2022/08/27 07:31:23;;;;;;;2.95;1.50;;;20.00;82.00;;;;;;6275993;22;20050;-84
2022/08/27 07:33:51;;;;;;;3.40;1.73;;;20.10;81.80;;;;;;6277250;22;20000;-83
2022/08/27 07:36:21;;;;;;;4.03;1.58;;;20.20;81.60;;;;;;6252080;23;20307;-83
2022/08/27 07:38:53;;;;;;;3.67;1.53;;;20.20;81.40;;;;;;6286351;22;20031;-83
2022/08/27 07:41:24;;;;;;;3.35;1.50;;;20.30;81.30;;;;;;6261960;23;20007;-84
2022/08/27 07:46:37;;;;;;;2.72;1.42;;;20.40;80.90;;;;;;6269770;23;20047;-82
2022/08/27 07:49:13;;;;;;;2.63;1.20;;;20.40;80.80;;;;;;6266294;22;20004;-84
2022/08/27 07:51:41;;;;;;;2.92;1.40;;;20.40;80.40;;;;;;6265553;23;20019;-82
2022/08/27 07:54:07;;;;;;;2.88;1.20;;;20.40;80.50;;;;;;6261903;22;20393;-84
2022/08/27 07:56:36;;;;;;;1.88;1.27;;;20.50;80.60;;;;;;6249875;22;20087;-86
2022/08/27 07:59:05;;;;;;;2.65;1.20;;;20.50;80.50;;;;;;6249465;23;20008;-84
2022/08/27 08:01:31;;;;;;;3.22;1.10;;;20.60;80.30;;;;;;6275446;22;20004;-84
2022/08/27 08:03:57;;;;;;;2.72;1.30;;;20.70;80.00;;;;;;6275869;22;20004;-84
2022/08/27 08:06:24;;;;;;;2.15;1.20;;;20.70;79.50;;;;;;6275602;22;20000;-84
2022/08/27 08:08:50;;;;;;;2.10;1.05;;;20.60;79.50;;;;;;6224789;23;20330;-83
2022/08/27 08:11:17;;;;;;;1.98;1.02;;;20.60;79.50;;;;;;6224045;23;20394;-83
2022/08/27 08:13:45;;;;;;;2.58;1.35;;;20.60;79.50;;;;;;6250011;23;20333;-83
2022/08/27 08:16:12;;;;;;;5.40;1.05;;;20.70;79.40;;;;;;6275063;22;20003;-84
2022/08/27 08:18:39;;;;;;;1.88;0.85;;;20.70;78.90;;;;;;6274648;22;20077;-84
2022/08/27 08:21:10;;;;;;;1.63;0.90;;;20.70;79.00;;;;;;6250975;22;20001;-83
2022/08/27 08:23:37;;;;;;;;;;;20.80;78.80;;;;;;6275451;22;20035;-84
2022/08/27 08:26:03;;;;;;;3.08;1.00;;;20.80;78.60;;;;;;6249800;23;19907;-83
2022/08/27 08:28:29;;;;;;;3.63;1.05;;;20.90;78.20;;;;;;6249401;22;20008;-84
2022/08/27 08:30:56;;;;;;;2.90;1.00;;;20.90;77.60;;;;;;6249251;23;20078;-83
2022/08/27 08:33:23;;;;;;;2.47;1.10;;;20.90;77.30;;;;;;6249249;23;20067;-83
2022/08/27 08:35:48;;;;;;;3.20;1.15;;;21.00;77.40;;;;;;6250833;23;19996;-84
2022/08/27 08:38:16;;;;;;;4.38;1.33;;;21.10;77.00;;;;;;6247457;23;20100;-81
2022/08/27 08:40:48;;;;;;;2.33;1.25;;;21.20;76.70;;;;;;6274115;22;20000;-84
2022/08/27 08:43:50;;;;;;;3.42;1.10;;;21.20;76.60;;;;;;6273840;22;20004;-83
2022/08/27 08:46:29;;;;;;;2.42;1.15;;;21.30;76.10;;;;;;6273813;22;20031;-83
2022/08/27 08:49:01;;;;;;;3.22;1.20;;;21.30;75.80;;;;;;6250332;23;20007;-84
2022/08/27 08:51:36;;;;;;;2.47;1.10;;;21.40;76.50;;;;;;6250236;23;20004;-84
2022/08/27 08:54:06;;;;;;;2.28;1.00;;;21.50;76.10;;;;;;6250380;23;20000;-84
2022/08/27 08:56:58;;;;;;;3.47;1.30;;;21.50;75.80;;;;;;6248505;23;20015;-82
2022/08/27 08:59:30;;;;;;;2.03;0.90;;;21.70;75.40;;;;;;6249784;22;20019;-84
2022/08/27 09:01:56;;;;;;;2.53;1.08;;;21.80;75.50;;;;;;6248670;23;20008;-84
2022/08/27 09:04:24;;;;;;;2.35;1.02;;;21.90;75.50;;;;;;6275478;22;20476;-83
2022/08/27 09:07:14;;;;;;;1.55;1.00;;;21.90;75.00;;;;;;6252035;23;20000;-84
2022/08/27 09:09:57;;;;;;;2.42;0.90;;;22.10;74.60;;;;;;6252454;23;19996;-85
2022/08/27 09:12:29;;;;;;;3.60;0.80;;;22.20;74.30;;;;;;6274964;22;20062;-84
2022/08/27 09:15:22;;;;;;;0.82;0.60;;;22.30;73.80;;;;;;6276090;22;20099;-84
2022/08/27 09:17:49;;;;;;;2.03;0.90;;;22.20;73.60;;;;;;6251918;23;20012;-82
2022/08/27 09:20:20;;;;;;;4.78;1.73;;;22.30;73.30;;;;;;6250819;22;20091;-84
2022/08/27 09:22:48;;;;;;;3.13;1.45;;;22.30;73.10;;;;;;6250691;23;20012;-83
2022/08/27 09:25:30;;;;;;;3.33;1.20;;;22.40;72.70;;;;;;6250366;23;20038;-84
2022/08/27 09:28:00;;;;;;;2.63;1.40;;;22.40;72.00;;;;;;6252679;23;20000;-85
2022/08/27 09:30:29;;;;;;;3.22;1.13;;;22.40;72.20;;;;;;6250142;23;20008;-84
2022/08/27 09:33:02;;;;;;;2.53;1.15;;;22.40;71.60;;;;;;6251928;23;20000;-84
2022/08/27 09:35:37;;;;;;;3.08;1.13;;;22.50;72.00;;;;;;6252396;23;20047;-83
2022/08/27 09:38:03;;;;;;;4.03;1.55;;;22.60;72.40;;;;;;6251203;23;20016;-84
2022/08/27 09:40:39;;;;;;;4.03;1.10;;;22.60;71.90;;;;;;6250909;23;20076;-83
2022/08/27 09:43:27;;;;;;;3.45;1.20;;;22.70;71.80;;;;;;6250619;23;20437;-84
2022/08/27 09:46:06;;;;;;;2.67;1.00;;;22.60;71.70;;;;;;6237774;23;19988;-84
2022/08/27 09:48:36;;;;;;;2.40;1.25;;;22.60;71.60;;;;;;6217982;23;20084;-83
2022/08/27 09:51:12;;;;;;;1.63;1.20;;;22.60;71.70;;;;;;6243091;23;20035;-81
2022/08/27 09:53:51;;;;;;;4.43;1.30;;;22.70;71.70;;;;;;6243422;23;19993;-84
2022/08/27 09:56:37;;;;;;;2.70;1.10;;;22.70;71.50;;;;;;6211762;23;20009;-85
2022/08/27 09:59:06;;;;;;;1.98;0.95;;;22.80;71.20;;;;;;6192824;23;20371;-82
2022/08/27 10:01:37;;;;;;;2.88;1.10;;;22.80;71.00;;;;;;6192296;23;20429;-84
2022/08/27 10:04:14;;;;;;;2.58;1.00;;;22.90;71.00;;;;;;6218888;23;20351;-85
2022/08/27 10:06:50;;;;;;;3.78;1.17;;;23.00;71.30;;;;;;6218083;23;20008;-84
2022/08/27 10:09:33;;;;;;;1.88;0.90;;;23.10;70.60;;;;;;6192372;23;20444;-83
2022/08/27 10:12:10;;;;;;;2.42;1.00;;;23.10;70.00;;;;;;6218647;23;20008;-84
2022/08/27 10:14:43;;;;;;;2.50;1.00;;;23.10;69.80;;;;;;6216901;23;20009;-83
2022/08/27 10:17:24;;;;;;;2.25;1.20;;;23.20;69.80;;;;;;6202196;23;20134;-83
2022/08/27 10:20:12;;;;;;;3.30;1.27;;;23.20;69.70;;;;;;6224828;23;20039;-83
2022/08/27 10:22:55;;;;;;;3.75;1.33;;;23.30;69.40;;;;;;6250873;23;20577;-84
2022/08/27 10:25:33;;;;;;;3.17;1.05;;;23.20;69.20;;;;;;6249651;23;20067;-84
2022/08/27 10:28:38;;;;;;;3.38;1.38;;;23.10;69.50;;;;;;6251234;23;20072;-83
2022/08/27 10:31:31;;;;;;;2.75;1.08;;;23.20;69.90;;;;;;6250952;23;20070;-83
2022/08/27 10:34:35;;;;;;;3.55;1.10;;;23.20;70.00;;;;;;6250373;23;20000;-84
2022/08/27 10:37:09;;;;;;;3.65;1.08;;;23.20;70.20;;;;;;6250047;23;20001;-83
2022/08/27 10:39:56;;;;;;;1.83;1.10;;;23.10;70.00;;;;;;6249653;23;20445;-83
2022/08/27 10:42:31;;;;;;;3.10;1.23;;;23.00;70.30;;;;;;6249620;23;20008;-83
2022/08/27 10:45:30;;;;;;;2.72;1.42;;;22.90;70.40;;;;;;6249610;23;20004;-83
2022/08/27 10:48:35;;;;;;;2.95;1.20;;;22.90;70.70;;;;;;6248364;23;20004;-84
2022/08/27 10:51:16;;;;;;;3.13;1.38;;;22.90;70.60;;;;;;6250028;23;20430;-84
2022/08/27 10:54:00;;;;;;;3.10;1.30;;;23.00;70.40;;;;;;6251253;23;20004;-83
2022/08/27 10:56:42;;;;;;;3.05;1.40;;;23.00;70.20;;;;;;6249919;23;20297;-83
2022/08/27 10:59:42;;;;;;;5.43;1.13;;;23.00;70.10;;;;;;6249680;23;20012;-87
2022/08/27 11:02:30;;;;;;;;;;;23.10;69.90;;;;;;6254571;23;20055;-87
2022/08/27 11:05:01;;;;;;;1.15;0.80;;;23.00;69.10;;;;;;6226016;23;19903;-85
2022/08/27 11:07:34;;;;;;;5.57;1.27;;;23.00;69.30;;;;;;6253458;23;20044;-86
2022/08/27 11:10:03;;;;;;;3.22;1.15;;;23.00;69.30;;;;;;6251735;23;20004;-84
2022/08/27 11:12:41;;;;;;;2.60;1.08;;;23.10;69.30;;;;;;6252227;23;20026;-83
2022/08/27 11:15:37;;;;;;;2.28;1.13;;;23.10;69.00;;;;;;6248861;23;20083;-83
2022/08/27 11:18:09;;;;;;;1.55;0.88;;;23.20;68.90;;;;;;6245916;23;20016;-83
2022/08/27 11:20:44;;;;;;;1.75;0.82;;;23.30;69.00;;;;;;6250643;23;20051;-84
2022/08/27 11:23:18;;;;;;;2.30;1.00;;;23.40;68.80;;;;;;6249284;23;20012;-84
2022/08/27 11:25:52;;;;;;;2.72;1.00;;;23.40;68.30;;;;;;6251867;23;20023;-84
2022/08/27 11:28:21;;;;;;;3.75;0.93;;;23.40;68.20;;;;;;6252095;23;20004;-84
2022/08/27 11:31:12;;;;;;;2.70;1.10;;;23.30;68.20;;;;;;6225242;23;20094;-84
2022/08/27 11:33:40;;;;;;;;;;;23.40;68.20;;;;;;6251442;23;19996;-84
2022/08/27 11:36:20;;;;;;;3.85;1.13;;;23.40;68.00;;;;;;6250086;23;20262;-84
2022/08/27 11:39:04;;;;;;;3.28;1.00;;;23.40;68.20;;;;;;6240689;23;20008;-84
2022/08/27 11:41:51;;;;;;;3.88;1.30;;;23.40;67.80;;;;;;6237540;23;20426;-84
2022/08/27 11:44:22;;;;;;;2.25;0.88;;;23.40;67.80;;;;;;6241279;23;20000;-84
2022/08/27 11:46:50;;;;;;;;;;;23.40;67.40;;;;;;6247017;23;19996;-84
2022/08/27 11:49:41;;;;;;;2.05;1.17;;;23.40;67.40;;;;;;6256362;23;19899;-85
2022/08/27 11:52:08;;;;;;;2.47;1.27;;;23.40;67.50;;;;;;6270535;23;20042;-84
2022/08/27 11:55:18;;;;;;;2.35;0.95;;;23.40;67.50;;;;;;6298304;22;20015;-84
2022/08/27 11:57:45;;;;;;;2.28;1.05;;;23.50;67.60;;;;;;6284750;22;20051;-84
2022/08/27 12:00:28;;;;;;;1.48;1.00;;;23.50;67.60;;;;;;6270727;22;20016;-83
2022/08/27 12:03:19;;;;;;;3.15;1.20;;;23.60;67.50;;;;;;6271182;23;20034;-82
2022/08/27 12:05:52;;;;;;;2.78;1.10;;;23.70;67.20;;;;;;6265336;22;20008;-84
2022/08/27 12:08:37;;;;;;;2.22;1.10;;;23.80;67.20;;;;;;6252478;23;20476;-84
2022/08/27 12:11:18;;;;;;;2.05;1.02;;;23.70;67.60;;;;;;6226475;23;20012;-83
2022/08/27 12:14:01;;;;;;;;;;;23.60;67.70;;;;;;6252486;23;20126;-85
2022/08/27 12:16:28;;;;;;;3.55;1.40;;;23.60;67.90;;;;;;6250181;23;19900;-80
2022/08/27 12:19:19;;;;;;;3.80;1.20;;;23.50;68.10;;;;;;6247254;23;20445;-81
2022/08/27 12:21:54;;;;;;;5.00;1.67;;;23.50;68.40;;;;;;6237366;23;20011;-87
2022/08/27 12:24:43;;;;;;;2.45;1.05;;;23.50;68.40;;;;;;6247321;23;20438;-80
2022/08/27 12:27:20;;;;;;;3.53;1.23;;;23.50;68.50;;;;;;6245943;23;20086;-80
2022/08/27 12:29:54;;;;;;;3.08;1.30;;;23.60;68.50;;;;;;6248772;23;19996;-81
2022/08/27 12:32:38;;;;;;;3.28;1.25;;;23.60;68.50;;;;;;6246840;23;20004;-81
2022/08/27 12:35:18;;;;;;;2.80;1.15;;;23.60;68.50;;;;;;6246983;23;20004;-80
2022/08/27 12:38:35;;;;;;;4.15;1.35;;;23.70;68.30;;;;;;6248318;23;20008;-79
2022/08/27 12:41:07;;;;;;;3.38;1.38;;;23.70;67.70;;;;;;6204224;23;20434;-85
2022/08/27 12:43:37;;;;;;;4.10;1.40;;;23.70;67.50;;;;;;6250880;23;20003;-81
2022/08/27 12:46:05;;;;;;;3.88;1.50;;;23.70;67.80;;;;;;6199015;23;20087;-80
2022/08/27 12:48:55;;;;;;;3.78;1.50;;;23.60;67.70;;;;;;6249997;23;20030;-80
2022/08/27 12:51:30;;;;;;;2.15;0.95;;;23.60;68.10;;;;;;6250012;23;20004;-81
2022/08/27 12:54:01;;;;;;;2.53;1.23;;;23.60;68.00;;;;;;6250125;23;20447;-79
2022/08/27 12:56:50;;;;;;;4.60;1.30;;;23.70;67.90;;;;;;6248438;23;20007;-81
2022/08/27 13:00:08;;;;;;;3.10;1.17;;;23.80;67.50;;;;;;6247701;23;20015;-80
2022/08/27 13:02:40;;;;;;;6.68;1.25;;;23.90;67.30;;;;;;6212186;23;20000;-80
2022/08/27 13:05:11;;;;;;;6.38;1.20;;;23.90;66.70;;;;;;6249851;23;20016;-82
2022/08/27 13:07:42;;;;;;;;;;;23.90;66.50;;;;;;6249301;23;20054;-80
2022/08/27 13:10:15;;;;;;;3.20;1.13;;;23.80;66.50;;;;;;6249499;23;19900;-80
2022/08/27 13:12:42;;;;;;;3.72;1.23;;;23.80;66.70;;;;;;6248909;23;20000;-80
2022/08/27 13:15:10;;;;;;;2.13;1.05;;;23.80;66.70;;;;;;6250150;23;20028;-80
2022/08/27 13:17:40;;;;;;;3.05;1.10;;;23.80;67.30;;;;;;6248736;23;20004;-80
2022/08/27 13:20:21;;;;;;;5.10;1.50;;;23.90;67.00;;;;;;6246567;23;20004;-82
2022/08/27 13:22:48;;;;;;;3.65;1.30;;;24.00;67.00;;;;;;6248391;23;20001;-79
2022/08/27 13:25:40;;;;;;;2.88;1.20;;;24.00;66.90;;;;;;6250335;23;19997;-80
2022/08/27 13:28:12;;;;;;;2.75;1.10;;;24.10;67.00;;;;;;6214823;23;20008;-80
2022/08/27 13:30:42;;;;;;;3.40;1.20;;;24.00;66.70;;;;;;6248983;23;19996;-80
2022/08/27 13:33:23;;;;;;;3.33;1.52;;;24.00;66.80;;;;;;6247101;23;20423;-80
2022/08/27 13:35:50;;;;;;;3.72;1.10;;;23.90;66.50;;;;;;6247599;23;20004;-80
2022/08/27 13:38:17;;;;;;;3.88;0.95;;;23.90;67.10;;;;;;6249683;23;20012;-81
2022/08/27 13:41:19;;;;;;;4.82;1.40;;;23.90;67.30;;;;;;6222613;23;20326;-80
2022/08/27 13:43:46;;;;;;;3.72;1.33;;;23.90;67.50;;;;;;6227360;23;20003;-81
2022/08/27 13:46:17;;;;;;;3.13;1.10;;;24.00;67.70;;;;;;6249065;23;20434;-81
2022/08/27 13:48:45;;;;;;;3.88;1.30;;;24.00;67.70;;;;;;6247059;23;20007;-81
2022/08/27 13:51:12;;;;;;;2.63;1.00;;;24.00;67.70;;;;;;6248060;23;20000;-78